Barnum, Minnesota
Current Conditions -  °F | °C
As of 2:33 PM on Saturday 25 Oct 2014 (Local Time) from KMZH Reporting Station
Clear Clear  
Wind Chill: 61°   Ceiling: Unl
Heat Index: 61°   Visibility: 10mi
Dew Point: 27°   Wind: 22mph
Humidity: 27%   Direction: 300°WNW
Pressure: 29.95"   Gusts: 32mph
Location:  46.5°N, 92.69°W
Report Text: KMZH 251933Z AUTO 30019G28KT 10SM CLR 16/M03 A2995 RMK AO2
Loading
Personal Weather Stations






























Interactive Weather Map
Tropical Storm Tracking
New forecast layout! Learn more

10-Day Weather Forecast

Advertisements
Track Severe Weather on mobile